Dane County Regional Truax Field
KMSN : now visible

Airfield :











YOU CAN JOIN US ON...

 
LOGIN :

Register | Disclaimer

   EN    FR    IT 

 









Legend :    VFR   Marginal VFR   IFR   Intensive IFR   Very Intensive IFR
Visi :
Ceiling :
>= 8 km
>= 3000ft
5 to 8 km
1000 to 3000 ft
1500m to 5 km
500 to 1000 ft
800 to 1500m
200 to 500 ft
< 800m
< 200 ft
Symbols :   Thunderstorms  Fog  Heavy snow  Heavy precipitations  Wind > 20 kt







- Airport Elevation : 887 ft
- IATA code : MSN


KMSN - Dane County Regional Truax Field

CURRENT METAR :
  • 210453Z 24008G23KT 190V290 10SM FEW027 BKN034 M02/M07 A2979 RMK AO2 SLP097 LAST T10171072

EXPIRED METARs :
  • 210353Z 25012G21KT 10SM OVC034 M01/M06 A2976 RMK AO2 PK WND 25028/0256 SLP087 T10061056
  • 210253Z 25011G26KT 10SM OVC036 00/M07 A2974 RMK AO2 PK WND 29030/0241 SLP081 T00001067 51031

TAF KMSN
Valid from the 21 at 06:00 until the 22 at 06:00 UTC


210521Z 2106/2206 25012G21KT P6SM SCT020 BKN035
TEMPO 2106/2108 BKN025
FM210800 25011G20KT P6SM FEW025
FM211400 27009KT P6SM FEW250
FM220100 VRB04KT P6SM SCT200
KZAU FIR / North America



MET'MAP, your aeronautical weather chart ! - Copyright ORBIFLY December 2007 - Disclaimer

ORBIFLY MET'MAP TEAM :

Programming & Development : Alexandra Zaïnal
Concept & Development : Baudouin d'Aumeries
Co-Development & Prog : Marc-Olivier Méhu
Technical & hardware support : Manuel Goepfert

Contact : metmap@orbifly.com




SOURCES & CREDITS :

   NOAA       Earth
Advisory